createdAt,value
2023-11-16T00:00:07.646Z,12.20
2023-11-16T00:05:17.706Z,12.20
2023-11-16T00:10:21.198Z,12.20
2023-11-16T00:15:25.808Z,12.10
2023-11-16T00:20:28.762Z,12.30
2023-11-16T00:25:32.291Z,12.20
2023-11-16T00:30:36.711Z,12.20
2023-11-16T00:35:41.245Z,12.20
2023-11-16T00:40:45.908Z,12.20
2023-11-16T00:45:50.336Z,12.30
2023-11-16T00:50:53.421Z,12.20
2023-11-16T00:55:56.668Z,12.20
2023-11-16T01:01:01.832Z,12.20
2023-11-16T01:06:05.223Z,12.20
2023-11-16T01:11:09.715Z,12.20
2023-11-16T01:16:15.615Z,12.20
2023-11-16T01:21:19.362Z,12.20
2023-11-16T01:26:24.727Z,12.10
2023-11-16T01:31:30.467Z,12.10
2023-11-16T01:36:33.553Z,12.20
2023-11-16T01:41:36.689Z,12.00
2023-11-16T01:46:41.740Z,12.20
2023-11-16T01:51:47.426Z,12.20
2023-11-16T01:56:52.078Z,12.20
2023-11-16T02:01:57.491Z,12.20
2023-11-16T02:07:00.539Z,12.20
2023-11-16T02:12:04.414Z,12.20
2023-11-16T02:17:08.833Z,12.20
2023-11-16T02:22:12.128Z,12.20
2023-11-16T02:27:16.554Z,12.10
2023-11-16T02:32:19.604Z,12.00
2023-11-16T02:37:22.592Z,12.00
2023-11-16T02:42:26.967Z,12.00
2023-11-16T02:47:32.225Z,11.90
2023-11-16T02:52:35.328Z,11.90
2023-11-16T02:57:40.215Z,11.80
2023-11-16T03:02:44.361Z,11.70
2023-11-16T03:07:48.092Z,11.80
2023-11-16T03:12:53.743Z,11.80
2023-11-16T03:17:57.766Z,11.70
2023-11-16T03:23:00.833Z,11.80
2023-11-16T03:28:05.459Z,11.80
2023-11-16T03:33:09.941Z,11.70
2023-11-16T03:38:13.200Z,11.80
2023-11-16T03:43:17.570Z,11.70
2023-11-16T03:48:23.784Z,11.70
2023-11-16T03:53:27.321Z,11.70
2023-11-16T03:58:31.809Z,11.70
2023-11-16T04:03:36.130Z,11.70
2023-11-16T04:08:39.713Z,11.70
2023-11-16T04:13:44.041Z,11.70
2023-11-16T04:18:50.232Z,11.70
2023-11-16T04:23:58.013Z,11.60
2023-11-16T04:29:02.454Z,11.60
2023-11-16T04:34:05.456Z,11.60
2023-11-16T04:39:08.512Z,11.50
2023-11-16T04:44:12.918Z,11.60
2023-11-16T04:49:16.740Z,11.60
2023-11-16T04:54:20.256Z,11.70
2023-11-16T04:59:24.563Z,11.80
2023-11-16T05:04:27.628Z,11.80
2023-11-16T05:09:30.680Z,11.80
2023-11-16T05:14:35.279Z,11.90
2023-11-16T05:19:38.630Z,11.90
2023-11-16T05:24:41.759Z,11.90
2023-11-16T05:29:46.963Z,11.90
2023-11-16T05:34:49.966Z,11.90
2023-11-16T05:39:52.949Z,12.00
2023-11-16T05:44:57.435Z,12.00
2023-11-16T05:50:00.469Z,12.00
2023-11-16T05:55:04.501Z,11.90
2023-11-16T06:00:12.550Z,11.90
2023-11-16T06:05:16.643Z,11.90
2023-11-16T06:10:19.976Z,11.90
2023-11-16T06:15:26.521Z,11.90
2023-11-16T06:20:29.936Z,11.80
2023-11-16T06:25:32.931Z,11.70
2023-11-16T06:30:40.151Z,11.70
2023-11-16T06:35:47.414Z,11.80
2023-11-16T06:40:50.655Z,11.70
2023-11-16T06:45:56.320Z,11.80
2023-11-16T06:51:02.000Z,11.80
2023-11-16T06:56:06.049Z,11.60
2023-11-16T07:01:11.613Z,11.60
2023-11-16T07:06:15.638Z,11.60
2023-11-16T07:11:22.532Z,11.50
2023-11-16T07:16:26.984Z,11.70
2023-11-16T07:21:30.032Z,11.60
2023-11-16T07:26:33.434Z,11.60
2023-11-16T07:31:38.934Z,11.70
2023-11-16T07:36:42.573Z,11.70
2023-11-16T07:41:46.116Z,11.60
2023-11-16T07:46:50.544Z,11.70
2023-11-16T07:51:55.170Z,11.70
2023-11-16T07:57:02.662Z,11.80
2023-11-16T08:02:08.893Z,11.80
2023-11-16T08:07:12.836Z,11.80
2023-11-16T08:12:16.417Z,11.80
2023-11-16T08:17:20.888Z,11.90
2023-11-16T08:22:24.033Z,11.90
2023-11-16T08:27:27.019Z,11.90
2023-11-16T08:32:31.320Z,12.00
2023-11-16T08:37:35.170Z,12.00
2023-11-16T08:42:42.697Z,12.10
2023-11-16T08:47:48.291Z,12.10
2023-11-16T08:52:52.591Z,12.10
2023-11-16T08:57:57.640Z,12.10
2023-11-16T09:03:04.448Z,12.30
2023-11-16T09:08:11.118Z,12.30
2023-11-16T09:13:14.410Z,12.30
2023-11-16T09:18:19.044Z,12.30
2023-11-16T09:23:22.211Z,12.40
2023-11-16T09:28:25.408Z,12.40
2023-11-16T09:33:30.032Z,12.40
2023-11-16T09:38:33.246Z,12.40
2023-11-16T09:43:38.327Z,12.40
2023-11-16T09:48:42.830Z,12.40
2023-11-16T09:53:47.240Z,12.40
2023-11-16T09:58:54.979Z,12.50
2023-11-16T10:04:00.908Z,12.40
2023-11-16T10:09:15.457Z,12.40
2023-11-16T10:14:19.266Z,12.50
2023-11-16T10:19:23.594Z,12.50
2023-11-16T10:24:27.404Z,12.50
2023-11-16T10:29:30.914Z,12.60
2023-11-16T10:34:38.220Z,12.50
2023-11-16T10:39:45.268Z,12.50
2023-11-16T10:44:50.522Z,12.60
2023-11-16T10:49:54.868Z,12.80
2023-11-16T10:55:03.283Z,12.90
2023-11-16T11:00:17.707Z,13.00
2023-11-16T11:05:23.349Z,13.20
2023-11-16T11:10:28.264Z,13.30
2023-11-16T11:15:33.466Z,13.20
2023-11-16T11:20:41.195Z,13.00
2023-11-16T11:25:44.834Z,13.10
2023-11-16T11:30:53.446Z,13.20
2023-11-16T11:35:58.085Z,13.40
2023-11-16T11:41:07.675Z,13.30
2023-11-16T11:46:12.524Z,13.30
2023-11-16T11:51:20.725Z,13.20
2023-11-16T11:56:23.952Z,13.20
2023-11-16T12:01:27.414Z,12.70
2023-11-16T12:06:32.064Z,12.60
2023-11-16T12:11:36.132Z,12.60
2023-11-16T12:16:39.874Z,12.60
2023-11-16T12:21:44.972Z,12.50
2023-11-16T12:26:47.938Z,12.10
2023-11-16T12:31:52.749Z,11.90
2023-11-16T12:36:59.645Z,11.80
2023-11-16T12:42:10.810Z,11.80
2023-11-16T12:47:21.721Z,11.50
2023-11-16T12:52:28.956Z,11.60
2023-11-16T12:57:32.378Z,11.90
2023-11-16T13:02:35.542Z,11.80
2023-11-16T13:07:40.990Z,11.60
2023-11-16T13:12:45.539Z,11.60
2023-11-16T13:17:48.995Z,11.40
2023-11-16T13:22:55.239Z,11.50
2023-11-16T13:28:04.007Z,11.90
2023-11-16T13:33:13.376Z,12.10
2023-11-16T13:38:25.807Z,12.20
2023-11-16T13:43:32.565Z,12.40
2023-11-16T13:48:42.092Z,12.50
2023-11-16T13:53:46.657Z,12.50
2023-11-16T13:58:55.987Z,12.60
2023-11-16T14:04:02.689Z,12.60
2023-11-16T14:09:15.270Z,12.50
2023-11-16T14:14:18.925Z,12.60
2023-11-16T14:19:25.838Z,12.40
2023-11-16T14:24:33.447Z,12.40
2023-11-16T14:29:38.667Z,11.90
2023-11-16T14:34:45.850Z,12.10
2023-11-16T14:39:51.112Z,12.20
2023-11-16T14:44:57.820Z,12.10
2023-11-16T14:50:02.494Z,11.80
2023-11-16T14:55:09.035Z,11.70
2023-11-16T15:00:20.001Z,11.70
2023-11-16T15:05:31.126Z,11.70
2023-11-16T15:10:44.321Z,12.00
2023-11-16T15:15:47.977Z,11.90
2023-11-16T15:20:51.963Z,12.10
2023-11-16T15:25:59.022Z,12.00
2023-11-16T15:31:04.045Z,11.90
2023-11-16T15:36:08.635Z,12.10
2023-11-16T15:41:16.172Z,12.10
2023-11-16T15:46:23.549Z,11.80
2023-11-16T15:51:30.774Z,11.60
2023-11-16T15:56:37.290Z,11.80
2023-11-16T16:01:41.012Z,11.70
2023-11-16T16:06:44.201Z,11.00
2023-11-16T16:11:48.628Z,11.10
2023-11-16T16:16:54.206Z,10.70
2023-11-16T16:21:57.272Z,10.70
2023-11-16T16:27:08.573Z,10.90
2023-11-16T16:33:17.736Z,10.90
2023-11-16T16:38:36.510Z,11.00
2023-11-16T16:43:41.974Z,11.30
2023-11-16T16:48:45.196Z,10.90
2023-11-16T16:53:48.775Z,11.20
2023-11-16T16:58:53.547Z,11.30
2023-11-16T17:03:59.672Z,11.20
2023-11-16T17:09:02.911Z,11.10
2023-11-16T17:14:08.289Z,11.00
2023-11-16T17:19:13.801Z,11.10
2023-11-16T17:24:30.468Z,10.90
2023-11-16T17:29:35.270Z,11.10
2023-11-16T17:34:38.292Z,11.00
2023-11-16T17:39:43.849Z,11.20
2023-11-16T17:44:48.433Z,11.30
2023-11-16T17:49:51.370Z,11.20
2023-11-16T17:54:54.382Z,11.10
2023-11-16T18:00:04.414Z,10.90
2023-11-16T18:05:15.210Z,10.80
2023-11-16T18:10:19.756Z,11.00
2023-11-16T18:15:25.133Z,10.80
2023-11-16T18:20:28.963Z,10.90
2023-11-16T18:25:32.151Z,10.80
2023-11-16T18:30:38.609Z,10.90
2023-11-16T18:35:42.253Z,10.90
2023-11-16T18:40:45.499Z,10.90
2023-11-16T18:45:50.241Z,10.80
2023-11-16T18:50:53.271Z,10.90
2023-11-16T18:55:59.182Z,10.80
2023-11-16T19:01:03.664Z,10.90
2023-11-16T19:06:08.108Z,10.90
2023-11-16T19:11:11.247Z,10.80
2023-11-16T19:16:16.295Z,10.70
2023-11-16T19:21:19.238Z,11.10
2023-11-16T19:26:23.618Z,11.10
2023-11-16T19:31:28.903Z,11.20
2023-11-16T19:36:31.923Z,10.90
2023-11-16T19:41:35.173Z,10.70
2023-11-16T19:46:40.052Z,10.60
2023-11-16T19:51:43.066Z,10.40
2023-11-16T19:56:46.996Z,10.40
2023-11-16T20:01:51.413Z,10.60
2023-11-16T20:06:55.554Z,10.70
2023-11-16T20:12:00.715Z,10.70
2023-11-16T20:17:08.268Z,10.70
2023-11-16T20:22:13.024Z,10.50
2023-11-16T20:27:16.116Z,10.60
2023-11-16T20:32:20.470Z,10.60
2023-11-16T20:37:24.892Z,10.60
2023-11-16T20:42:27.913Z,10.50
2023-11-16T20:47:32.680Z,10.60
2023-11-16T20:52:35.749Z,10.60
2023-11-16T20:57:38.926Z,10.50
2023-11-16T21:02:43.920Z,10.40
2023-11-16T21:07:47.906Z,10.30
2023-11-16T21:12:51.069Z,10.10
2023-11-16T21:17:55.532Z,10.20
2023-11-16T21:22:59.285Z,10.40
2023-11-16T21:28:02.273Z,10.40
2023-11-16T21:33:08.004Z,10.40
2023-11-16T21:38:10.959Z,10.20
2023-11-16T21:43:13.897Z,10.00
2023-11-16T21:48:18.264Z,10.10
2023-11-16T21:53:21.643Z,10.10
2023-11-16T21:58:24.563Z,9.60
2023-11-16T22:03:28.925Z,9.40
2023-11-16T22:08:31.951Z,9.20
2023-11-16T22:13:35.316Z,9.20
2023-11-16T22:18:40.319Z,9.10
2023-11-16T22:23:43.616Z,9.10
2023-11-16T22:28:46.552Z,8.90
2023-11-16T22:33:52.088Z,8.90
2023-11-16T22:38:55.541Z,8.90
2023-11-16T22:43:58.464Z,8.80
2023-11-16T22:49:02.794Z,8.90
2023-11-16T22:54:06.250Z,9.00
2023-11-16T22:59:09.544Z,9.00
2023-11-16T23:04:14.411Z,8.90
2023-11-16T23:09:20.032Z,8.80
2023-11-16T23:14:23.975Z,8.90
2023-11-16T23:19:28.572Z,8.90
2023-11-16T23:24:33.066Z,9.00
2023-11-16T23:29:38.199Z,9.00
2023-11-16T23:34:42.468Z,9.00
2023-11-16T23:39:45.948Z,9.00
2023-11-16T23:44:48.911Z,9.20
2023-11-16T23:49:53.413Z,9.20
2023-11-16T23:54:56.400Z,9.30
2023-11-16T23:59:59.317Z,9.20
